sensor_id;sensor_type;location;lat;lon;timestamp;pressure;altitude;pressure_sealevel;temperature;humidity
48204;BME280;33994;50.998;5.864;2023-05-01T00:02:46;101190.72;;;11.68;64.81
48204;BME280;33994;50.998;5.864;2023-05-01T00:05:49;101193.41;;;11.63;65.10
48204;BME280;33994;50.998;5.864;2023-05-01T00:08:52;101183.88;;;11.58;65.77
48204;BME280;33994;50.998;5.864;2023-05-01T00:11:55;101182.22;;;11.51;66.17
48204;BME280;33994;50.998;5.864;2023-05-01T00:14:59;101174.47;;;11.44;66.22
48204;BME280;33994;50.998;5.864;2023-05-01T00:18:03;101170.09;;;11.45;66.28
48204;BME280;33994;50.998;5.864;2023-05-01T00:21:06;101166.63;;;11.41;66.41
48204;BME280;33994;50.998;5.864;2023-05-01T00:24:09;101163.16;;;11.39;66.83
48204;BME280;33994;50.998;5.864;2023-05-01T00:27:12;101161.41;;;11.41;66.73
48204;BME280;33994;50.998;5.864;2023-05-01T00:30:17;101153.50;;;11.44;66.45
48204;BME280;33994;50.998;5.864;2023-05-01T00:33:19;101155.16;;;11.50;66.47
48204;BME280;33994;50.998;5.864;2023-05-01T00:36:23;101148.13;;;11.54;66.45
48204;BME280;33994;50.998;5.864;2023-05-01T00:39:26;101151.66;;;11.51;66.82
48204;BME280;33994;50.998;5.864;2023-05-01T00:42:33;101147.34;;;11.49;67.19
48204;BME280;33994;50.998;5.864;2023-05-01T00:45:38;101143.81;;;11.50;67.15
48204;BME280;33994;50.998;5.864;2023-05-01T00:48:42;101135.91;;;11.56;66.94
48204;BME280;33994;50.998;5.864;2023-05-01T00:51:48;101132.34;;;11.58;66.96
48204;BME280;33994;50.998;5.864;2023-05-01T00:54:51;101130.56;;;11.62;66.74
48204;BME280;33994;50.998;5.864;2023-05-01T00:57:55;101127.03;;;11.64;66.77
48204;BME280;33994;50.998;5.864;2023-05-01T01:00:59;101116.50;;;11.67;66.76
48204;BME280;33994;50.998;5.864;2023-05-01T01:04:03;101127.81;;;11.71;66.60
48204;BME280;33994;50.998;5.864;2023-05-01T01:07:09;101112.97;;;11.70;66.89
48204;BME280;33994;50.998;5.864;2023-05-01T01:10:21;101106.91;;;11.68;66.85
48204;BME280;33994;50.998;5.864;2023-05-01T01:13:28;101110.34;;;11.70;66.93
48204;BME280;33994;50.998;5.864;2023-05-01T01:16:39;101106.00;;;11.71;67.14
48204;BME280;33994;50.998;5.864;2023-05-01T01:20:13;101099.03;;;11.68;67.22
48204;BME280;33994;50.998;5.864;2023-05-01T01:23:39;101093.78;;;11.68;67.45
48204;BME280;33994;50.998;5.864;2023-05-01T01:27:00;101092.03;;;11.68;67.33
48204;BME280;33994;50.998;5.864;2023-05-01T01:30:45;101095.50;;;11.71;67.84
48204;BME280;33994;50.998;5.864;2023-05-01T01:33:58;101083.28;;;11.71;67.57
48204;BME280;33994;50.998;5.864;2023-05-01T01:37:07;101078.94;;;11.68;67.48
48204;BME280;33994;50.998;5.864;2023-05-01T01:40:16;101076.34;;;11.67;67.81
48204;BME280;33994;50.998;5.864;2023-05-01T01:43:21;101077.22;;;11.66;67.69
48204;BME280;33994;50.998;5.864;2023-05-01T01:46:26;101065.91;;;11.64;67.82
48204;BME280;33994;50.998;5.864;2023-05-01T01:49:32;101066.78;;;11.63;67.96
48204;BME280;33994;50.998;5.864;2023-05-01T01:52:37;101065.06;;;11.62;68.07
48204;BME280;33994;50.998;5.864;2023-05-01T01:55:43;101059.81;;;11.62;68.18
48204;BME280;33994;50.998;5.864;2023-05-01T01:58:47;101064.16;;;11.64;68.35
48204;BME280;33994;50.998;5.864;2023-05-01T02:01:52;101056.25;;;11.66;68.17
48204;BME280;33994;50.998;5.864;2023-05-01T02:05:00;101058.84;;;11.69;68.37
48204;BME280;33994;50.998;5.864;2023-05-01T02:08:04;101052.66;;;11.73;68.27
48204;BME280;33994;50.998;5.864;2023-05-01T02:11:08;101034.31;;;11.73;68.21
48204;BME280;33994;50.998;5.864;2023-05-01T02:14:13;101047.38;;;11.76;68.34
48204;BME280;33994;50.998;5.864;2023-05-01T02:17:18;101036.03;;;11.76;68.50
48204;BME280;33994;50.998;5.864;2023-05-01T02:20:23;101048.34;;;11.69;69.08
48204;BME280;33994;50.998;5.864;2023-05-01T02:23:27;101035.25;;;11.69;68.94
48204;BME280;33994;50.998;5.864;2023-05-01T02:26:34;101035.25;;;11.69;69.16
48204;BME280;33994;50.998;5.864;2023-05-01T02:29:40;101021.34;;;11.67;69.41
48204;BME280;33994;50.998;5.864;2023-05-01T02:32:44;101013.47;;;11.65;69.39
48204;BME280;33994;50.998;5.864;2023-05-01T02:35:48;101017.84;;;11.65;69.44
48204;BME280;33994;50.998;5.864;2023-05-01T02:38:51;101012.63;;;11.65;69.57
48204;BME280;33994;50.998;5.864;2023-05-01T02:41:56;101010.03;;;11.62;69.62
48204;BME280;33994;50.998;5.864;2023-05-01T02:45:03;101006.47;;;11.66;69.48
48204;BME280;33994;50.998;5.864;2023-05-01T02:48:08;101002.13;;;11.65;69.84
48204;BME280;33994;50.998;5.864;2023-05-01T02:51:14;100999.56;;;11.63;69.70
48204;BME280;33994;50.998;5.864;2023-05-01T02:54:18;100998.66;;;11.64;69.91
48204;BME280;33994;50.998;5.864;2023-05-01T02:57:21;100987.38;;;11.61;70.29
48204;BME280;33994;50.998;5.864;2023-05-01T03:00:24;100989.13;;;11.60;70.64
48204;BME280;33994;50.998;5.864;2023-05-01T03:03:27;100983.06;;;11.57;70.62
48204;BME280;33994;50.998;5.864;2023-05-01T03:06:32;100984.88;;;11.53;71.52
48204;BME280;33994;50.998;5.864;2023-05-01T03:09:35;100976.09;;;11.56;70.97
48204;BME280;33994;50.998;5.864;2023-05-01T03:12:38;100976.97;;;11.56;71.12
48204;BME280;33994;50.998;5.864;2023-05-01T03:15:41;100983.88;;;11.59;70.96
48204;BME280;33994;50.998;5.864;2023-05-01T03:18:46;100979.56;;;11.58;71.33
48204;BME280;33994;50.998;5.864;2023-05-01T03:21:50;100970.88;;;11.56;71.25
48204;BME280;33994;50.998;5.864;2023-05-01T03:24:53;100967.31;;;11.60;71.20
48204;BME280;33994;50.998;5.864;2023-05-01T03:27:56;100967.31;;;11.60;71.29
48204;BME280;33994;50.998;5.864;2023-05-01T03:31:00;100957.78;;;11.56;71.66
48204;BME280;33994;50.998;5.864;2023-05-01T03:34:03;100958.69;;;11.53;71.71
48204;BME280;33994;50.998;5.864;2023-05-01T03:37:07;100954.31;;;11.54;71.85
48204;BME280;33994;50.998;5.864;2023-05-01T03:40:11;100949.03;;;11.55;71.78
48204;BME280;33994;50.998;5.864;2023-05-01T03:43:14;100949.91;;;11.54;72.02
48204;BME280;33994;50.998;5.864;2023-05-01T03:46:17;100941.13;;;11.58;71.59
48204;BME280;33994;50.998;5.864;2023-05-01T03:49:19;100947.16;;;11.62;71.52
48204;BME280;33994;50.998;5.864;2023-05-01T03:52:24;100939.31;;;11.62;71.51
48204;BME280;33994;50.998;5.864;2023-05-01T03:55:26;100928.00;;;11.60;71.43
48204;BME280;33994;50.998;5.864;2023-05-01T03:58:29;100935.78;;;11.64;71.65
48204;BME280;33994;50.998;5.864;2023-05-01T04:01:32;100930.53;;;11.64;71.75
48204;BME280;33994;50.998;5.864;2023-05-01T04:04:35;100933.16;;;11.63;71.78
48204;BME280;33994;50.998;5.864;2023-05-01T04:07:39;100937.53;;;11.64;71.67
48204;BME280;33994;50.998;5.864;2023-05-01T04:10:43;100929.78;;;11.59;71.71
48204;BME280;33994;50.998;5.864;2023-05-01T04:13:46;100928.88;;;11.59;71.62
48204;BME280;33994;50.998;5.864;2023-05-01T04:16:49;100929.81;;;11.56;71.96
48204;BME280;33994;50.998;5.864;2023-05-01T04:19:52;100932.44;;;11.55;71.82
48204;BME280;33994;50.998;5.864;2023-05-01T04:22:56;100930.78;;;11.51;72.07
48204;BME280;33994;50.998;5.864;2023-05-01T04:26:00;100930.81;;;11.48;72.25
48204;BME280;33994;50.998;5.864;2023-05-01T04:29:02;100927.34;;;11.49;72.20
48204;BME280;33994;50.998;5.864;2023-05-01T04:32:05;100929.97;;;11.47;72.50
48204;BME280;33994;50.998;5.864;2023-05-01T04:35:08;100919.47;;;11.49;72.55
48204;BME280;33994;50.998;5.864;2023-05-01T04:38:13;100920.38;;;11.46;73.09
48204;BME280;33994;50.998;5.864;2023-05-01T04:41:16;100913.50;;;11.40;73.74
48204;BME280;33994;50.998;5.864;2023-05-01T04:44:19;100922.28;;;11.38;73.95
48204;BME280;33994;50.998;5.864;2023-05-01T04:47:22;100919.69;;;11.36;74.40
48204;BME280;33994;50.998;5.864;2023-05-01T04:50:26;100924.00;;;11.39;74.42
48204;BME280;33994;50.998;5.864;2023-05-01T04:53:30;100928.38;;;11.38;74.79
48204;BME280;33994;50.998;5.864;2023-05-01T04:56:33;100921.38;;;11.39;74.82
48204;BME280;33994;50.998;5.864;2023-05-01T04:59:36;100927.47;;;11.39;74.87
48204;BME280;33994;50.998;5.864;2023-05-01T05:02:39;100924.94;;;11.36;74.91
48204;BME280;33994;50.998;5.864;2023-05-01T05:05:41;100929.25;;;11.37;75.07
48204;BME280;33994;50.998;5.864;2023-05-01T05:08:46;100924.84;;;11.39;74.94
48204;BME280;33994;50.998;5.864;2023-05-01T05:11:49;100928.28;;;11.43;74.60
48204;BME280;33994;50.998;5.864;2023-05-01T05:14:52;100928.25;;;11.46;74.44
48204;BME280;33994;50.998;5.864;2023-05-01T05:17:55;100931.66;;;11.50;74.60
48204;BME280;33994;50.998;5.864;2023-05-01T05:21:02;100935.94;;;11.55;74.82
48204;BME280;33994;50.998;5.864;2023-05-01T05:24:07;100937.63;;;11.58;74.66
48204;BME280;33994;50.998;5.864;2023-05-01T05:27:10;100937.63;;;11.58;74.78
48204;BME280;33994;50.998;5.864;2023-05-01T05:30:13;100944.59;;;11.60;74.50
48204;BME280;33994;50.998;5.864;2023-05-01T05:33:16;100939.31;;;11.62;74.66
48204;BME280;33994;50.998;5.864;2023-05-01T05:36:19;100947.16;;;11.62;74.33
48204;BME280;33994;50.998;5.864;2023-05-01T05:39:23;100950.59;;;11.65;74.39
48204;BME280;33994;50.998;5.864;2023-05-01T05:42:26;100944.47;;;11.66;74.50
48204;BME280;33994;50.998;5.864;2023-05-01T05:45:29;100928.59;;;11.74;74.21
48204;BME280;33994;50.998;5.864;2023-05-01T05:48:35;100933.81;;;11.77;74.66
48204;BME280;33994;50.998;5.864;2023-05-01T05:51:38;100930.31;;;11.77;74.54
48204;BME280;33994;50.998;5.864;2023-05-01T05:54:42;100930.22;;;11.81;74.30
48204;BME280;33994;50.998;5.864;2023-05-01T05:57:45;100931.84;;;11.88;74.44
48204;BME280;33994;50.998;5.864;2023-05-01T06:00:49;100932.66;;;11.92;74.21
48204;BME280;33994;50.998;5.864;2023-05-01T06:03:52;100932.56;;;11.97;74.17
48204;BME280;33994;50.998;5.864;2023-05-01T06:06:55;100933.41;;;11.99;73.91
48204;BME280;33994;50.998;5.864;2023-05-01T06:09:59;100934.19;;;12.04;73.86
48204;BME280;33994;50.998;5.864;2023-05-01T06:13:02;100940.22;;;12.09;73.87
48204;BME280;33994;50.998;5.864;2023-05-01T06:16:06;100936.66;;;12.13;73.51
48204;BME280;33994;50.998;5.864;2023-05-01T06:19:10;100929.53;;;12.18;73.09
48204;BME280;33994;50.998;5.864;2023-05-01T06:22:13;100932.94;;;12.23;72.73
48204;BME280;33994;50.998;5.864;2023-05-01T06:25:18;100932.91;;;12.26;72.48
48204;BME280;33994;50.998;5.864;2023-05-01T06:28:21;100938.09;;;12.29;72.49
48204;BME280;33994;50.998;5.864;2023-05-01T06:31:24;100930.97;;;12.34;72.49
48204;BME280;33994;50.998;5.864;2023-05-01T06:34:27;100929.16;;;12.39;72.38
48204;BME280;33994;50.998;5.864;2023-05-01T06:37:30;100933.34;;;12.47;72.23
48204;BME280;33994;50.998;5.864;2023-05-01T06:40:35;100930.66;;;12.50;72.24
48204;BME280;33994;50.998;5.864;2023-05-01T06:43:38;100934.06;;;12.55;72.40
48204;BME280;33994;50.998;5.864;2023-05-01T06:46:41;100940.13;;;12.58;72.34
48204;BME280;33994;50.998;5.864;2023-05-01T06:49:44;100936.47;;;12.64;72.37
48204;BME280;33994;50.998;5.864;2023-05-01T06:52:47;100933.75;;;12.70;72.39
48204;BME280;33994;50.998;5.864;2023-05-01T06:55:52;100942.31;;;12.78;72.26
48204;BME280;33994;50.998;5.864;2023-05-01T06:58:54;100939.56;;;12.83;72.13
48204;BME280;33994;50.998;5.864;2023-05-01T07:01:58;100941.19;;;12.88;71.96
48204;BME280;33994;50.998;5.864;2023-05-01T07:05:01;100929.69;;;12.94;71.88
48204;BME280;33994;50.998;5.864;2023-05-01T07:08:04;100936.53;;;13.00;71.77
48204;BME280;33994;50.998;5.864;2023-05-01T07:11:09;100939.94;;;13.05;71.80
48204;BME280;33994;50.998;5.864;2023-05-01T07:14:12;100936.34;;;13.09;71.41
48204;BME280;33994;50.998;5.864;2023-05-01T07:17:15;100929.25;;;13.12;71.25
48204;BME280;33994;50.998;5.864;2023-05-01T07:20:18;100933.47;;;13.20;71.27
48204;BME280;33994;50.998;5.864;2023-05-01T07:23:22;100929.81;;;13.25;71.07
48204;BME280;33994;50.998;5.864;2023-05-01T07:26:26;100937.56;;;13.31;70.89
48204;BME280;33994;50.998;5.864;2023-05-01T07:29:29;100937.47;;;13.34;70.46
48204;BME280;33994;50.998;5.864;2023-05-01T07:32:32;100933.78;;;13.42;69.96
48204;BME280;33994;50.998;5.864;2023-05-01T07:35:36;100928.41;;;13.48;69.50
48204;BME280;33994;50.998;5.864;2023-05-01T07:38:39;100943.16;;;13.53;69.07
48204;BME280;33994;50.998;5.864;2023-05-01T07:41:43;100933.44;;;13.57;68.59
48204;BME280;33994;50.998;5.864;2023-05-01T07:44:49;100930.75;;;13.60;67.99
48204;BME280;33994;50.998;5.864;2023-05-01T07:47:52;100929.03;;;13.59;67.89
48204;BME280;33994;50.998;5.864;2023-05-01T07:50:55;100931.66;;;13.59;67.77
48204;BME280;33994;50.998;5.864;2023-05-01T07:53:58;100926.31;;;13.62;67.78
48204;BME280;33994;50.998;5.864;2023-05-01T07:57:05;100933.34;;;13.61;67.67
48204;BME280;33994;50.998;5.864;2023-05-01T08:00:09;100926.25;;;13.63;67.66
48204;BME280;33994;50.998;5.864;2023-05-01T08:03:12;100922.72;;;13.65;67.90
48204;BME280;33994;50.998;5.864;2023-05-01T08:06:16;100929.59;;;13.70;67.59
48204;BME280;33994;50.998;5.864;2023-05-01T08:09:19;100929.47;;;13.75;67.66
48204;BME280;33994;50.998;5.864;2023-05-01T08:12:23;100933.69;;;13.80;67.50
48204;BME280;33994;50.998;5.864;2023-05-01T08:15:27;100935.38;;;13.83;67.49
48204;BME280;33994;50.998;5.864;2023-05-01T08:18:30;100944.06;;;13.86;67.35
48204;BME280;33994;50.998;5.864;2023-05-01T08:21:33;100932.59;;;13.89;67.40
48204;BME280;33994;50.998;5.864;2023-05-01T08:24:37;100933.38;;;13.93;67.45
48204;BME280;33994;50.998;5.864;2023-05-01T08:27:42;100939.38;;;13.98;67.29
48204;BME280;33994;50.998;5.864;2023-05-01T08:30:45;100936.69;;;13.99;67.29
48204;BME280;33994;50.998;5.864;2023-05-01T08:33:48;100932.31;;;14.00;67.21
48204;BME280;33994;50.998;5.864;2023-05-01T08:36:51;100930.50;;;14.02;67.16
48204;BME280;33994;50.998;5.864;2023-05-01T08:39:55;100933.00;;;14.06;67.09
48204;BME280;33994;50.998;5.864;2023-05-01T08:43:00;100931.97;;;14.12;66.99
48204;BME280;33994;50.998;5.864;2023-05-01T08:46:06;100930.91;;;14.19;67.15
48204;BME280;33994;50.998;5.864;2023-05-01T08:49:12;100936.84;;;14.26;66.89
48204;BME280;33994;50.998;5.864;2023-05-01T08:52:17;100940.06;;;14.35;66.86
48204;BME280;33994;50.998;5.864;2023-05-01T08:55:22;100931.03;;;14.46;67.10
48204;BME280;33994;50.998;5.864;2023-05-01T08:58:29;100934.22;;;14.55;67.03
48204;BME280;33994;50.998;5.864;2023-05-01T09:01:32;100934.84;;;14.64;66.85
48204;BME280;33994;50.998;5.864;2023-05-01T09:04:37;100938.16;;;14.72;66.76
48204;BME280;33994;50.998;5.864;2023-05-01T09:07:40;100926.50;;;14.80;66.44
48204;BME280;33994;50.998;5.864;2023-05-01T09:10:44;100931.56;;;14.87;66.28
48204;BME280;33994;50.998;5.864;2023-05-01T09:13:51;100925.19;;;14.94;66.26
48204;BME280;33994;50.998;5.864;2023-05-01T09:16:55;100928.44;;;15.02;66.07
48204;BME280;33994;50.998;5.864;2023-05-01T09:20:00;100923.78;;;15.10;65.93
48204;BME280;33994;50.998;5.864;2023-05-01T09:23:04;100921.13;;;15.12;65.65
48204;BME280;33994;50.998;5.864;2023-05-01T09:26:07;100918.25;;;15.19;65.98
48204;BME280;33994;50.998;5.864;2023-05-01T09:29:12;100923.16;;;15.30;65.63
48204;BME280;33994;50.998;5.864;2023-05-01T09:32:35;100930.09;;;15.32;65.21
48204;BME280;33994;50.998;5.864;2023-05-01T09:35:52;100924.56;;;15.40;64.73
48204;BME280;33994;50.998;5.864;2023-05-01T09:38:55;100923.28;;;15.52;65.28
48204;BME280;33994;50.998;5.864;2023-05-01T09:41:59;100925.38;;;15.69;64.71
48204;BME280;33994;50.998;5.864;2023-05-01T09:45:05;100919.50;;;15.86;63.99
48204;BME280;33994;50.998;5.864;2023-05-01T09:48:09;100924.50;;;15.95;63.84
48204;BME280;33994;50.998;5.864;2023-05-01T09:51:20;100925.06;;;16.03;64.05
48204;BME280;33994;50.998;5.864;2023-05-01T09:54:23;100922.47;;;16.01;63.52
48204;BME280;33994;50.998;5.864;2023-05-01T09:57:34;100924.50;;;15.95;63.23
48204;BME280;33994;50.998;5.864;2023-05-01T10:00:47;100929.59;;;15.99;63.17
48204;BME280;33994;50.998;5.864;2023-05-01T10:03:53;100929.41;;;16.04;63.12
48204;BME280;33994;50.998;5.864;2023-05-01T10:06:55;100931.03;;;16.08;63.55
48204;BME280;33994;50.998;5.864;2023-05-01T10:10:14;100929.22;;;16.10;62.79
48204;BME280;33994;50.998;5.864;2023-05-01T10:13:17;100926.59;;;16.09;62.90
48204;BME280;33994;50.998;5.864;2023-05-01T10:16:29;100931.31;;;16.00;61.98
48204;BME280;33994;50.998;5.864;2023-05-01T10:19:32;100935.38;;;16.09;62.52
48204;BME280;33994;50.998;5.864;2023-05-01T10:22:35;100931.72;;;16.13;62.33
48204;BME280;33994;50.998;5.864;2023-05-01T10:25:40;100935.16;;;16.15;61.97
48204;BME280;33994;50.998;5.864;2023-05-01T10:28:46;100926.41;;;16.15;61.92
48204;BME280;33994;50.998;5.864;2023-05-01T10:31:51;100927.38;;;16.12;61.93
48204;BME280;33994;50.998;5.864;2023-05-01T10:34:57;100924.78;;;16.11;61.88
48204;BME280;33994;50.998;5.864;2023-05-01T10:38:05;100915.94;;;16.12;62.01
48204;BME280;33994;50.998;5.864;2023-05-01T10:41:10;100917.66;;;16.13;62.33
48204;BME280;33994;50.998;5.864;2023-05-01T10:44:19;100916.59;;;16.18;62.58
48204;BME280;33994;50.998;5.864;2023-05-01T10:47:45;100912.06;;;16.22;61.08
48204;BME280;33994;50.998;5.864;2023-05-01T10:51:06;100914.41;;;16.29;61.65
48204;BME280;33994;50.998;5.864;2023-05-01T10:54:25;100914.03;;;16.40;61.52
48204;BME280;33994;50.998;5.864;2023-05-01T10:57:42;100919.81;;;16.50;60.77
48204;BME280;33994;50.998;5.864;2023-05-01T11:04:51;100912.03;;;16.69;60.36
48204;BME280;33994;50.998;5.864;2023-05-01T11:11:48;100909.22;;;16.73;59.51
48204;BME280;33994;50.998;5.864;2023-05-01T11:15:04;100902.81;;;16.81;59.09
48204;BME280;33994;50.998;5.864;2023-05-01T11:18:07;100892.78;;;16.89;59.34
48204;BME280;33994;50.998;5.864;2023-05-01T11:21:13;100900.41;;;16.96;58.47
48204;BME280;33994;50.998;5.864;2023-05-01T11:24:17;100900.09;;;17.04;58.45
48204;BME280;33994;50.998;5.864;2023-05-01T11:27:21;100895.50;;;17.09;58.26
48204;BME280;33994;50.998;5.864;2023-05-01T11:30:24;100891.81;;;17.13;58.04
48204;BME280;33994;50.998;5.864;2023-05-01T11:33:27;100889.03;;;17.16;57.72
48204;BME280;33994;50.998;5.864;2023-05-01T11:36:46;100888.00;;;17.20;56.61
48204;BME280;33994;50.998;5.864;2023-05-01T11:39:50;100885.19;;;17.23;56.89
48204;BME280;33994;50.998;5.864;2023-05-01T11:42:59;100878.09;;;17.25;55.69
48204;BME280;33994;50.998;5.864;2023-05-01T11:46:02;100864.75;;;17.29;56.02
48204;BME280;33994;50.998;5.864;2023-05-01T11:49:05;100868.25;;;17.29;55.58
48204;BME280;33994;50.998;5.864;2023-05-01T11:52:10;100880.59;;;17.29;55.01
48204;BME280;33994;50.998;5.864;2023-05-01T11:55:14;100870.88;;;17.29;55.00
48204;BME280;33994;50.998;5.864;2023-05-01T11:58:17;100866.38;;;17.31;55.80
48204;BME280;33994;50.998;5.864;2023-05-01T12:01:20;100862.88;;;17.31;55.74
48204;BME280;33994;50.998;5.864;2023-05-01T12:04:24;100871.75;;;17.30;55.63
48204;BME280;33994;50.998;5.864;2023-05-01T12:07:29;100877.28;;;17.23;56.69
48204;BME280;33994;50.998;5.864;2023-05-01T12:10:32;100897.09;;;17.13;58.77
48204;BME280;33994;50.998;5.864;2023-05-01T12:13:38;100906.00;;;16.89;60.71
48204;BME280;33994;50.998;5.864;2023-05-01T12:16:42;100910.63;;;16.60;60.14
48204;BME280;33994;50.998;5.864;2023-05-01T12:19:46;100895.66;;;16.37;59.98
48204;BME280;33994;50.998;5.864;2023-05-01T12:22:50;100888.94;;;16.05;59.55
48204;BME280;33994;50.998;5.864;2023-05-01T12:25:54;100885.94;;;15.91;58.12
48204;BME280;33994;50.998;5.864;2023-05-01T12:28:58;100906.13;;;15.92;58.28
48204;BME280;33994;50.998;5.864;2023-05-01T12:32:01;100946.13;;;15.79;62.78
48204;BME280;33994;50.998;5.864;2023-05-01T12:35:14;100937.53;;;15.46;61.24
48204;BME280;33994;50.998;5.864;2023-05-01T12:38:20;100954.63;;;15.35;61.34
48204;BME280;33994;50.998;5.864;2023-05-01T12:41:41;100974.06;;;15.02;67.53
48204;BME280;33994;50.998;5.864;2023-05-01T12:44:45;100972.97;;;14.81;68.14
48204;BME280;33994;50.998;5.864;2023-05-01T12:47:48;100950.50;;;14.70;67.23
48204;BME280;33994;50.998;5.864;2023-05-01T12:50:51;100942.03;;;14.58;68.03
48204;BME280;33994;50.998;5.864;2023-05-01T12:53:56;100945.03;;;14.46;68.12
48204;BME280;33994;50.998;5.864;2023-05-01T12:57:08;100949.81;;;14.32;68.98
48204;BME280;33994;50.998;5.864;2023-05-01T13:00:12;100954.47;;;14.22;68.04
48204;BME280;33994;50.998;5.864;2023-05-01T13:03:22;100964.34;;;14.14;68.91
48204;BME280;33994;50.998;5.864;2023-05-01T13:06:30;100965.66;;;13.98;71.88
48204;BME280;33994;50.998;5.864;2023-05-01T13:09:34;100965.00;;;13.90;72.39
48204;BME280;33994;50.998;5.864;2023-05-01T13:12:42;100966.16;;;13.79;71.93
48204;BME280;33994;50.998;5.864;2023-05-01T13:15:46;100956.69;;;13.72;71.58
48204;BME280;33994;50.998;5.864;2023-05-01T13:18:50;100952.41;;;13.68;70.95
48204;BME280;33994;50.998;5.864;2023-05-01T13:21:54;100955.91;;;13.69;70.70
48204;BME280;33994;50.998;5.864;2023-05-01T13:25:00;100941.09;;;13.66;70.25
48204;BME280;33994;50.998;5.864;2023-05-01T13:28:03;100946.28;;;13.69;70.72
48204;BME280;33994;50.998;5.864;2023-05-01T13:31:10;100936.56;;;13.71;70.96
48204;BME280;33994;50.998;5.864;2023-05-01T13:34:16;100932.97;;;13.75;71.34
48204;BME280;33994;50.998;5.864;2023-05-01T13:37:23;100933.59;;;13.85;71.65
48204;BME280;33994;50.998;5.864;2023-05-01T13:40:27;100931.63;;;13.93;72.04
48204;BME280;33994;50.998;5.864;2023-05-01T13:43:31;100942.72;;;14.04;72.48
48204;BME280;33994;50.998;5.864;2023-05-01T13:46:34;100933.69;;;14.13;72.30
48204;BME280;33994;50.998;5.864;2023-05-01T13:49:40;100937.75;;;14.25;72.52
48204;BME280;33994;50.998;5.864;2023-05-01T13:52:43;100931.31;;;14.35;73.00
48204;BME280;33994;50.998;5.864;2023-05-01T13:55:48;100941.53;;;14.46;73.41
48204;BME280;33994;50.998;5.864;2023-05-01T13:58:51;100933.44;;;14.53;73.66
48204;BME280;33994;50.998;5.864;2023-05-01T14:01:56;100926.97;;;14.64;74.26
48204;BME280;33994;50.998;5.864;2023-05-01T14:04:58;100925.03;;;14.70;74.22
48204;BME280;33994;50.998;5.864;2023-05-01T14:08:01;100927.44;;;14.78;74.35
48204;BME280;33994;50.998;5.864;2023-05-01T14:11:07;100925.41;;;14.88;73.74
48204;BME280;33994;50.998;5.864;2023-05-01T14:14:10;100932.16;;;14.95;73.76
48204;BME280;33994;50.998;5.864;2023-05-01T14:17:14;100921.47;;;15.01;74.62
48204;BME280;33994;50.998;5.864;2023-05-01T14:20:17;100917.72;;;15.08;75.79
48204;BME280;33994;50.998;5.864;2023-05-01T14:23:20;100921.03;;;15.15;75.87
48204;BME280;33994;50.998;5.864;2023-05-01T14:26:24;100916.41;;;15.21;76.56
48204;BME280;33994;50.998;5.864;2023-05-01T14:29:27;100915.38;;;15.25;76.87
48204;BME280;33994;50.998;5.864;2023-05-01T14:32:35;100914.41;;;15.29;77.08
48204;BME280;33994;50.998;5.864;2023-05-01T14:35:46;100916.13;;;15.30;75.58
48204;BME280;33994;50.998;5.864;2023-05-01T14:38:50;100918.75;;;15.30;73.85
48204;BME280;33994;50.998;5.864;2023-05-01T14:41:55;100920.56;;;15.28;72.39
48204;BME280;33994;50.998;5.864;2023-05-01T14:44:58;100924.03;;;15.30;72.55
48204;BME280;33994;50.998;5.864;2023-05-01T14:48:01;100927.44;;;15.32;71.89
48204;BME280;33994;50.998;5.864;2023-05-01T14:51:05;100938.81;;;15.35;70.72
48204;BME280;33994;50.998;5.864;2023-05-01T14:54:12;100944.88;;;15.37;70.97
48204;BME280;33994;50.998;5.864;2023-05-01T14:57:16;100952.69;;;15.40;70.86
48204;BME280;33994;50.998;5.864;2023-05-01T15:00:20;100956.25;;;15.39;70.11
48204;BME280;33994;50.998;5.864;2023-05-01T15:03:23;100959.69;;;15.41;69.73
48204;BME280;33994;50.998;5.864;2023-05-01T15:06:26;100963.91;;;15.46;69.46
48204;BME280;33994;50.998;5.864;2023-05-01T15:09:30;100963.81;;;15.49;70.44
48204;BME280;33994;50.998;5.864;2023-05-01T15:12:34;100963.84;;;15.48;72.65
48204;BME280;33994;50.998;5.864;2023-05-01T15:15:37;100969.25;;;15.43;73.38
48204;BME280;33994;50.998;5.864;2023-05-01T15:18:41;100959.59;;;15.44;74.16
48204;BME280;33994;50.998;5.864;2023-05-01T15:21:44;100963.13;;;15.43;75.00
48204;BME280;33994;50.998;5.864;2023-05-01T15:24:47;100952.59;;;15.43;76.02
48204;BME280;33994;50.998;5.864;2023-05-01T15:27:52;100958.69;;;15.45;76.16
48204;BME280;33994;50.998;5.864;2023-05-01T15:30:55;100951.47;;;15.50;76.76
48204;BME280;33994;50.998;5.864;2023-05-01T15:33:58;100963.66;;;15.54;76.60
48204;BME280;33994;50.998;5.864;2023-05-01T15:37:01;100968.00;;;15.55;76.72
48204;BME280;33994;50.998;5.864;2023-05-01T15:40:06;100966.28;;;15.54;76.83
48204;BME280;33994;50.998;5.864;2023-05-01T15:43:11;100962.63;;;15.58;76.63
48204;BME280;33994;50.998;5.864;2023-05-01T15:46:14;100959.72;;;15.66;76.58
48204;BME280;33994;50.998;5.864;2023-05-01T15:49:17;100963.06;;;15.71;76.47
48204;BME280;33994;50.998;5.864;2023-05-01T15:52:20;100970.00;;;15.75;76.29
48204;BME280;33994;50.998;5.864;2023-05-01T15:55:23;100974.31;;;15.77;73.74
48204;BME280;33994;50.998;5.864;2023-05-01T15:58:28;100975.16;;;15.78;69.33
48204;BME280;33994;50.998;5.864;2023-05-01T16:01:32;100968.25;;;15.75;65.73
48204;BME280;33994;50.998;5.864;2023-05-01T16:04:36;100976.16;;;15.75;64.79
48204;BME280;33994;50.998;5.864;2023-05-01T16:07:39;100979.69;;;15.74;63.67
48204;BME280;33994;50.998;5.864;2023-05-01T16:10:42;100984.94;;;15.74;62.71
48204;BME280;33994;50.998;5.864;2023-05-01T16:13:46;100990.22;;;15.74;62.24
48204;BME280;33994;50.998;5.864;2023-05-01T16:16:49;100990.31;;;15.71;61.74